METAR的历史 Texel International Airport (EHTX)

2022年5月17日

时间 代码 天气 温度 能见度 乌云 METAR/SPECI
14:55
V
21 °C 10 km+ 5.100 ft 070°   070° 6 kt METAR EHKD 171255Z AUTO 07006KT 040V110 9999 OVC051 21/14 Q1020 BLU NOSIG
14:25
V
20 °C 10 km+ 5.000 ft 060°   060° 5 kt METAR EHKD 171225Z AUTO 06005KT 010V110 9999 OVC050 20/13 Q1020 BLU NOSIG
13:55
V
19 °C 10 km+ 5.000 ft 070°   070° 3 kt METAR EHKD 171155Z AUTO 07003KT 030V110 9999 OVC050 19/11 Q1020 BLU NOSIG
13:25
V
18 °C 10 km+ 5.100 ft 050°   050° 5 kt METAR EHKD 171125Z AUTO 05005KT 9999 BKN051 OVC056 18/12 Q1020 BLU NOSIG
12:55
V
20 °C 10 km+ 5.300 ft 060°   060° 5 kt METAR EHKD 171055Z AUTO 06005KT 350V140 9999 OVC053 20/12 Q1020 BLU NOSIG
12:25
V
19 °C 10 km+ 5.300 ft Var   Var 3 kt METAR EHKD 171025Z AUTO VRB03KT 9999 OVC053 19/12 Q1020 BLU NOSIG
11:55
V
19 °C 10 km+ 37.000 ft 260°   260° 4 kt METAR EHKD 170955Z AUTO 26004KT 200V310 9999 FEW054 OVC370 19/12 Q1020 BLU NOSIG
11:25
V
18 °C 10 km+ - 270°   270° 5 kt METAR EHKD 170925Z AUTO 27005KT 230V320 9999 NCD 18/12 Q1020 BLU NOSIG
10:55
V
17 °C 10 km+ - 260°   260° 7 kt METAR EHKD 170855Z AUTO 26007KT 220V300 9999 NCD 17/12 Q1020 BLU NOSIG
10:25
V
17 °C 10 km+ 39.000 ft 260°   260° 7 kt METAR EHKD 170825Z AUTO 26007KT 220V290 9999 BKN390 17/12 Q1020 BLU NOSIG
09:55
V
16 °C 10 km+ 37.000 ft 260°   260° 7 kt METAR EHKD 170755Z AUTO 26007KT 230V290 9999 SCT092 OVC370 16/12 Q1020 BLU NOSIG
09:25
V
15 °C 10 km+ 8.900 ft 260°   260° 7 kt METAR EHKD 170725Z AUTO 26007KT 230V290 9999 OVC089 15/12 Q1020 BLU NOSIG
08:55
V
16 °C 10 km+ 10.000 ft 270°   270° 9 kt METAR EHKD 170655Z AUTO 27009KT 240V300 9999 OVC100 16/12 Q1020 BLU NOSIG
08:25
V
15 °C 10 km+ 14.000 ft 250°   250° 10 kt METAR EHKD 170625Z AUTO 25010KT 9999 OVC140 15/12 Q1020 BLU NOSIG
07:55
V
14 °C 10 km+ 14.000 ft 250°   250° 9 kt METAR EHKD 170555Z AUTO 25009KT 9999 OVC140 14/12 Q1019 BLU NOSIG
07:25
V
13 °C 10 km+ 14.000 ft 250°   250° 7 kt METAR EHKD 170525Z AUTO 25007KT 220V280 9999 OVC140 13/12 Q1019 BLU NOSIG
06:55
V
13 °C 10 km+ 15.000 ft 240°   240° 6 kt METAR EHKD 170455Z AUTO 24006KT 9999 OVC150 13/12 Q1019 BLU NOSIG
06:25
V
13 °C 10 km+ 16.000 ft 240°   240° 6 kt METAR EHKD 170425Z AUTO 24006KT 190V260 9999 OVC160 13/12 Q1019 BLU
06:23
V
13 °C 10 km+ 16.000 ft 240°   240° 6 kt METAR EHKD 170423Z AUTO 24006KT 9999 OVC160 13/12 Q1019 BLU NOSIG
05:55
V
13 °C 10 km+ 16.000 ft 240°   240° 5 kt METAR EHKD 170355Z AUTO 24005KT 210V270 9999 OVC160 13/12 Q1019 BLU
05:25
V
13 °C 10 km+ 16.000 ft 240°   240° 6 kt METAR EHKD 170325Z AUTO 24006KT 210V270 9999 OVC160 13/12 Q1019 BLU
04:55
V
13 °C 10 km+ 32.000 ft 240°   240° 8 kt METAR EHKD 170255Z AUTO 24008KT 9999 OVC320 13/12 Q1019 BLU
04:25
V
13 °C 10 km+ 33.000 ft 240°   240° 8 kt METAR EHKD 170225Z AUTO 24008KT 210V280 9999 OVC330 13/12 Q1018 BLU
03:55
V
13 °C 10 km+ - 240°   240° 7 kt METAR EHKD 170155Z AUTO 24007KT 9999 SCT340 13/12 Q1018 BLU
03:25
V
13 °C 10 km+ - 230°   230° 8 kt METAR EHKD 170125Z AUTO 23008KT 9999 FEW031 13/12 Q1018 BLU
02:55
V
13 °C 10 km+ 21.000 ft 230°   230° 8 kt METAR EHKD 170055Z AUTO 23008KT 9999 BKN210 13/12 Q1018 BLU
02:25
V
13 °C 10 km+ 22.000 ft 240°   240° 9 kt METAR EHKD 170025Z AUTO 24009KT 9999 OVC220 13/12 Q1018 BLU
01:55
V
14 °C 10 km+ 23.000 ft 230°   230° 9 kt METAR EHKD 162355Z AUTO 23009KT 9999 BKN230 14/12 Q1018 BLU
01:25
V
14 °C 10 km+ 24.000 ft 230°   230° 10 kt METAR EHKD 162325Z AUTO 23010KT 9999 OVC240 14/12 Q1018 BLU
00:55
V
14 °C 10 km+ - 230°   230° 10 kt METAR EHKD 162255Z AUTO 23010KT 9999 SCT300 14/12 Q1018 BLU
00:25
V
14 °C 10 km+ - 230°   230° 9 kt METAR EHKD 162225Z AUTO 23009KT 9999 FEW290 14/12 Q1018 BLU NOSIG

2022年5月16日

时间 代码 天气 温度 能见度 乌云 METAR/SPECI
23:55
V
14 °C 10 km+ - 230°   230° 9 kt METAR EHKD 162155Z AUTO 23009KT 9999 NCD 14/12 Q1017 BLU NOSIG
23:25
V
14 °C 10 km+ - 230°   230° 10 kt METAR EHKD 162125Z AUTO 23010KT 9999 NCD 14/12 Q1018 BLU NOSIG
22:55
V
14 °C 10 km+ - 220°   220° 8 kt METAR EHKD 162055Z AUTO 22008KT 9999 NCD 14/12 Q1018 BLU NOSIG
22:25
V
14 °C 10 km+ - 230°   230° 8 kt METAR EHKD 162025Z AUTO 23008KT 210V270 9999 NCD 14/12 Q1017 BLU NOSIG
21:55
V
14 °C 10 km+ - 240°   240° 9 kt METAR EHKD 161955Z AUTO 24009KT 210V270 9999 NCD 14/12 Q1017 BLU NOSIG
21:25
V
14 °C 10 km+ - 240°   240° 9 kt METAR EHKD 161925Z AUTO 24009KT 9999 NCD 14/12 Q1017 BLU NOSIG
20:55
V
14 °C 10 km+ - 240°   240° 12 kt METAR EHKD 161855Z AUTO 24012KT 9999 SCT038 14/12 Q1017 BLU NOSIG
20:25
V
15 °C 10 km+ 3.100 ft 230°   230° 13 kt METAR EHKD 161825Z AUTO 23013KT 200V260 9999 FEW021 BKN031 BKN046 15/12 Q1016 BLU NOSIG
20:15
V
15 °C 10 km+ 4.300 ft 230°   230° 13 kt METAR EHKD 161815Z AUTO 23013KT 200V260 9999 FEW022 BKN043 BKN270 15/12 Q1016 BLU NOSIG
19:55
M
15 °C 10 km+ 2.400 ft 230°   230° 13 kt METAR EHKD 161755Z AUTO 23013KT 190V260 9999 BKN024 OVC035 15/13 Q1016 WHT NOSIG
19:38
M
15 °C 10 km+ 2.100 ft 230°   230° 13 kt METAR EHKD 161738Z AUTO 23013KT 9999 BKN021 BKN028 OVC031 15/12 Q1016 WHT NOSIG
19:34
M
15 °C 10 km+ 2.800 ft 230°   230° 14 kt METAR EHKD 161734Z AUTO 23014KT 190V270 9999 SCT021 BKN028 BKN033 15/13 Q1016 WHT NOSIG
19:25
V
15 °C 10 km+ 3.200 ft 230°   230° 13 kt METAR EHKD 161725Z AUTO 23013KT 200V260 9999 FEW027 BKN032 OVC180 15/13 Q1016 BLU NOSIG
19:15
V
15 °C 10 km+ 18.000 ft 230°   230° 14 kt METAR EHKD 161715Z AUTO 23014KT 200V260 9999 FEW022 SCT041 OVC180 15/13 Q1016 BLU NOSIG
18:55
M
15 °C 10 km+ 2.000 ft 220°   220° 14 kt METAR EHKD 161655Z AUTO 22014KT 190V250 9999 BKN020 OVC024 15/13 Q1016 WHT TEMPO SCT006 BKN015
18:25
M
15 °C 10 km+ 2.000 ft 220°   220° 15 kt METAR EHKD 161625Z AUTO 22015KT 190V250 9999 OVC020 15/13 Q1016 WHT TEMPO SCT006 BKN015
17:55
M
15 °C 10 km+ 1.800 ft 220°   220° 15 kt METAR EHKD 161555Z AUTO 22015KT 190V250 9999 OVC018 15/13 Q1016 WHT TEMPO SCT006 BKN015
17:43
M
16 °C 10 km+ 2.500 ft 220°   220° 17 kt METAR EHKD 161543Z AUTO 22017KT 9999 SCT018 OVC025 16/13 Q1015 WHT TEMPO SCT006 BKN015
17:38
M
16 °C 10 km+ 2.500 ft 220°   220° 18 kt METAR EHKD 161538Z AUTO 22018KT 9999 OVC025 16/13 Q1015 BLU TEMPO SCT006 BKN015
17:32
M
16 °C 10 km+ 2.400 ft 220°   220° 19 kt METAR EHKD 161532Z AUTO 22019KT 9999 OVC024 16/13 Q1015 WHT TEMPO SCT006 BKN015
17:25
M
16 °C 10 km+ 2.400 ft 220°   220° 18 kt METAR EHKD 161525Z AUTO 22018KT 190V250 9999 SCT018 OVC024 16/13 Q1015 WHT TEMPO SCT006 BKN015
16:55
M
16 °C 10 km+ 1.600 ft 220°   220° 19 kt METAR EHKD 161455Z AUTO 22019KT 180V250 9999 OVC016 16/13 Q1015 WHT TEMPO SCT006 BKN015
16:38
M
17 °C 10 km+ 1.500 ft 220°   220° 19 kt METAR EHKD 161438Z AUTO 22019KT 190V250 9999 OVC015 17/13 Q1015 WHT TEMPO BKN006
16:25
M
16 °C 10 km+ 1.200 ft 220°   220° 19 kt METAR EHKD 161425Z AUTO 22019KT 190V250 9999 FEW008 OVC012 16/13 Q1015 GRN TEMPO BKN006
15:55
I
17 °C 10 km+ 800 ft 220°   220° 18 kt METAR EHKD 161355Z AUTO 22018KT 190V250 9999 SCT007 BKN008 17/14 Q1015 GRN TEMPO BKN006
15:25
I
17 °C 10 km+ 700 ft 220°   220° 15 kt METAR EHKD 161325Z AUTO 22015KT 180V260 9999 OVC007 17/14 Q1015 GRN TEMPO BKN006
14:55
I
17 °C 10 km+ 700 ft 230°   230° 17 kt METAR EHKD 161255Z AUTO 23017KT 200V260 9999 BKN007 OVC008 17/14 Q1015 GRN TEMPO BKN006
14:32
M
17 °C 10 km+ 1.000 ft 220°   220° 14 kt METAR EHKD 161232Z AUTO 22014KT 170V260 9999 FEW009 OVC010 17/13 Q1015 GRN TEMPO BKN006
14:25
M
17 °C 10 km+ 1.200 ft 230°   230° 15 kt METAR EHKD 161225Z AUTO 23015KT 200V260 9999 SCT010 OVC012 17/13 Q1015 GRN TEMPO 4500 SHRA SCT010 BKN013 SCT050CB
14:19
M
17 °C 10 km+ 1.100 ft 230°   230° 15 kt METAR EHKD 161219Z AUTO 23015KT 200V260 9999 OVC011 17/13 Q1015 GRN TEMPO 4500 SHRA SCT010 BKN013 SCT050CB
14:13
M
17 °C 10 km+ 1.200 ft 230°   230° 13 kt METAR EHKD 161213Z AUTO 23013KT 200V260 9999 BKN012 BKN098 OVC100 17/13 Q1014 GRN TEMPO 4500 SHRA BKN013 SCT050CB BKN060
14:07
V
17 °C 10 km+ 9.800 ft 230°   230° 12 kt METAR EHKD 161207Z AUTO 23012KT 9999 FEW013 SCT089 BKN098 17/13 Q1014 BLU TEMPO 4500 SHRA SCT014 SCT050CB BKN060
13:55
V
18 °C 10 km+ 8.900 ft 250°   250° 10 kt METAR EHKD 161155Z AUTO 25010KT 220V290 9999 OVC089 18/13 Q1014 BLU TEMPO 5000 SHRA SCT028CB
13:25
V
20 °C 10 km+ 32.000 ft 240°   240° 16 kt METAR EHKD 161125Z AUTO 24016KT 9999 OVC320 20/13 Q1014 BLU TEMPO 5000 SHRA SCT028CB
13:14
V
20 °C 10 km+ 30.000 ft 240°   240° 16 kt METAR EHKD 161114Z AUTO 24016KT 210V280 9999 FEW110 BKN300 20/13 Q1014 BLU TEMPO 5000 SHRA SCT028CB
12:55
V
22 °C 10 km+ 37.000 ft 220°   220° 14 kt METAR EHKD 161055Z AUTO 22014KT 190V260 9999 BKN370 22/12 Q1014 BLU NOSIG
12:25
V
24 °C 10 km+ 35.000 ft 190°   190° 8 kt METAR EHKD 161025Z AUTO 19008KT 140V240 9999 BKN350 24/14 Q1013 BLU NOSIG
11:55
V
22 °C 10 km+ 36.000 ft 160°   160° 8 kt METAR EHKD 160955Z AUTO 16008KT 110V210 9999 SCT120 BKN360 22/13 Q1013 BLU NOSIG
11:30
V
22 °C 10 km+ 12.000 ft 160°   160° 7 kt METAR EHKD 160930Z AUTO 16007KT 130V210 9999 OVC120 22/13 Q1013 BLU NOSIG
11:25
V
20 °C 10 km+ 12.000 ft 160°   160° 7 kt METAR EHKD 160925Z AUTO 16007KT 110V200 9999 OVC120 20/12 Q1013 BLU NOSIG
10:55
V
20 °C 10 km+ 13.000 ft 150°   150° 7 kt METAR EHKD 160855Z AUTO 15007KT 120V200 9999 OVC130 20/12 Q1013 BLU NOSIG
10:25
V
20 °C 10 km+ 13.000 ft 150°   150° 8 kt METAR EHKD 160825Z AUTO 15008KT 090V180 9999 OVC130 20/12 Q1012 BLU NOSIG
09:55
V
20 °C 10 km+ 11.000 ft 120°   120° 7 kt METAR EHKD 160755Z AUTO 12007KT 090V150 9999 OVC110 20/12 Q1012 BLU NOSIG
09:25
V
18 °C 10 km+ 14.000 ft 120°   120° 8 kt METAR EHKD 160725Z AUTO 12008KT 090V150 9999 OVC140 18/12 Q1012 BLU NOSIG
08:55
V
17 °C 10 km+ 15.000 ft 110°   110° 9 kt METAR EHKD 160655Z AUTO 11009KT 080V140 9999 OVC150 17/12 Q1012 BLU NOSIG
08:25
V
17 °C 10 km+ - 100°   100° 9 kt METAR EHKD 160625Z AUTO 10009KT 060V130 9999 FEW310 17/11 Q1012 BLU NOSIG
07:55
V
16 °C 10 km+ 16.000 ft 110°   110° 8 kt METAR EHKD 160555Z AUTO 11008KT 070V140 9999 BKN160 BKN320 16/12 Q1012 BLU NOSIG
07:25
V
15 °C 10 km+ 15.000 ft 100°   100° 10 kt METAR EHKD 160525Z AUTO 10010KT 060V130 9999 OVC150 15/11 Q1012 BLU NOSIG
06:57
V
15 °C 10 km+ - 090°   090° 12 kt METAR EHKD 160457Z AUTO 09012KT 9999 SCT160 15/11 Q1012 BLU NOSIG
06:55
V
15 °C 10 km+ - 090°   090° 12 kt METAR EHKD 160455Z AUTO 09012KT 9999 NCD 15/11 Q1012 BLU NOSIG
06:35
V
14 °C 10 km+ - 080°   080° 11 kt METAR EHKD 160435Z AUTO 08011KT 9999 NCD 14/11 Q1012 BLU NOSIG
06:25
V
14 °C 10 km+ 16.000 ft 080°   080° 11 kt METAR EHKD 160425Z AUTO 08011KT 050V110 9999 OVC160 14/11 Q1012 BLU
05:55
V
14 °C 10 km+ 17.000 ft 080°   080° 8 kt METAR EHKD 160355Z AUTO 08008KT 9999 BKN170 14/11 Q1013 BLU
05:25
V
14 °C 10 km+ 27.000 ft 080°   080° 9 kt METAR EHKD 160325Z AUTO 08009KT 9999 FEW190 OVC270 14/11 Q1013 BLU
04:55
V
14 °C 10 km+ 27.000 ft 080°   080° 9 kt METAR EHKD 160255Z AUTO 08009KT 9999 FEW200 OVC270 14/11 Q1013 BLU
04:25
V
14 °C 10 km+ 21.000 ft 080°   080° 10 kt METAR EHKD 160225Z AUTO 08010KT 9999 BKN210 OVC320 14/11 Q1013 BLU
03:55
V
14 °C 10 km+ 21.000 ft 080°   080° 11 kt METAR EHKD 160155Z AUTO 08011KT 9999 BKN210 OVC350 14/11 Q1014 BLU
03:25
V
14 °C 10 km+ - 080°   080° 12 kt METAR EHKD 160125Z AUTO 08012KT 040V110 9999 SCT340 14/11 Q1014 BLU
02:55
V
15 °C 10 km+ 17.000 ft 090°   090° 11 kt METAR EHKD 160055Z AUTO 09011KT 050V120 9999 OVC170 15/11 Q1015 BLU
02:25
V
15 °C 10 km+ 17.000 ft 090°   090° 12 kt METAR EHKD 160025Z AUTO 09012KT 9999 OVC170 15/11 Q1015 BLU
01:55
V
15 °C 10 km+ 18.000 ft 090°   090° 12 kt METAR EHKD 152355Z AUTO 09012KT 050V120 9999 OVC180 15/11 Q1015 BLU
01:25
V
15 °C 10 km+ 18.000 ft 090°   090° 13 kt METAR EHKD 152325Z AUTO 09013KT 060V130 9999 OVC180 15/11 Q1015 BLU
00:55
V
16 °C 10 km+ 17.000 ft 090°   090° 14 kt METAR EHKD 152255Z AUTO 09014KT 060V120 9999 OVC170 16/12 Q1016 BLU
00:25
V
16 °C 10 km+ 16.000 ft 090°   090° 15 kt METAR EHKD 152225Z AUTO 09015KT 060V120 9999 OVC160 16/12 Q1016 BLU

2022年5月15日

时间 代码 天气 温度 能见度 乌云 METAR/SPECI
23:55
V
16 °C 10 km+ 17.000 ft 080°   080° 16 kt METAR EHKD 152155Z AUTO 08016KT 050V110 9999 OVC170 16/12 Q1016 BLU
23:25
V
16 °C 10 km+ 17.000 ft 070°   070° 14 kt METAR EHKD 152125Z AUTO 07014KT 9999 OVC170 16/13 Q1016 BLU
22:55
V
15 °C 10 km+ 16.000 ft 070°   070° 14 kt METAR EHKD 152055Z AUTO 07014KT 9999 OVC160 15/13 Q1016 BLU
22:25
V
16 °C 10 km+ 15.000 ft 060°   060° 16 kt METAR EHKD 152025Z AUTO 06016KT 9999 OVC150 16/13 Q1016 BLU
21:55
V
16 °C 10 km+ 18.000 ft 060°   060° 16 kt METAR EHKD 151955Z AUTO 06016KT 9999 OVC180 16/13 Q1016 BLU
21:25
V
16 °C 10 km+ 18.000 ft 060°   060° 14 kt METAR EHKD 151925Z AUTO 06014KT 9999 OVC180 16/13 Q1016 BLU
20:55
V
16 °C 10 km+ - 060°   060° 15 kt METAR EHKD 151855Z AUTO 06015KT 9999 SCT180 16/12 Q1016 BLU
20:25
V
17 °C 10 km+ 17.000 ft 060°   060° 15 kt METAR EHKD 151825Z AUTO 06015KT 9999 OVC170 17/13 Q1016 BLU
19:55
V
17 °C 10 km+ 16.000 ft 050°   050° 15 kt METAR EHKD 151755Z AUTO 05015KT 9999 OVC160 17/13 Q1016 BLU
19:38
V
17 °C 10 km+ 16.000 ft 050°   050° 15 kt METAR EHKD 151738Z AUTO 05015KT 9999 OVC160 17/13 Q1016 BLU
19:25
V
17 °C 10 km+ 16.000 ft 050°   050° 15 kt METAR EHKD 151725Z AUTO 05015KT 010V080 9999 OVC160 17/14 Q1017 BLU NOSIG
18:55
V
18 °C 10 km+ 15.000 ft 040°   040° 12 kt METAR EHKD 151655Z AUTO 04012KT 010V080 9999 BKN150 OVC220 18/14 Q1017 BLU NOSIG
18:25
V
19 °C 10 km+ 10.000 ft 050°   050° 15 kt METAR EHKD 151625Z AUTO 05015KT 020V080 9999 FEW097 OVC100 19/14 Q1017 BLU NOSIG
17:55
V
18 °C 10 km+ 12.000 ft 040°   040° 12 kt METAR EHKD 151555Z AUTO 04012KT 360V080 9999 OVC120 18/14 Q1017 BLU NOSIG
17:25
V
18 °C 10 km+ 12.000 ft 040°   040° 12 kt METAR EHKD 151525Z AUTO 04012KT 010V070 9999 OVC120 18/14 Q1018 BLU NOSIG
16:55
V
19 °C 10 km+ 13.000 ft 040°   040° 12 kt METAR EHKD 151455Z AUTO 04012KT 010V080 9999 OVC130 19/14 Q1018 BLU NOSIG
16:25
V
19 °C 10 km+ 14.000 ft 050°   050° 14 kt METAR EHKD 151425Z AUTO 05014KT 010V080 9999 OVC140 19/13 Q1018 BLU NOSIG
15:55
V
20 °C 10 km+ 16.000 ft 050°   050° 15 kt METAR EHKD 151355Z AUTO 05015KT 010V080 9999 OVC160 20/13 Q1019 BLU NOSIG
15:25
V
20 °C 10 km+ 24.000 ft 040°   040° 13 kt METAR EHKD 151325Z AUTO 04013KT 010V080 9999 OVC240 20/14 Q1019 BLU NOSIG
14:55
V
20 °C 10 km+ 30.000 ft 040°   040° 12 kt METAR EHKD 151255Z AUTO 04012KT 350V080 9999 OVC300 20/14 Q1019 BLU NOSIG
较旧的数据

下载我们的应用程序

在您的手机和平板电脑上轻松访问所有航空天气。
有许多网站上没有的功能,如离线支持和个人机场列表。

Studio Eveline

Benalmádena
España